Time;durP1;ratioP1;P1;durP2;ratioP2;P2;SDS_P1;SDS_P2;PMS_P1;PMS_P2;Temp;Humidity;BMP_temperature;BMP_pressure;BME280_temperature;BME280_humidity;BME280_pressure;Samples;Min_cycle;Max_cycle;Signal;HPM_P1;HPM_P2
2023/11/25 00:01:38;;;;;;;8.97;4.20;;;;;;;2.17;81.77;97934.06;5112670;28;20208;-68
2023/11/25 00:04:06;;;;;;;8.03;4.00;;;;;;;2.17;82.25;97938.28;5113117;27;20651;-69
2023/11/25 00:06:34;;;;;;;5.43;3.30;;;;;;;2.17;82.05;97938.28;5115735;27;20555;-70
2023/11/25 00:09:02;;;;;;;5.03;3.47;;;;;;;2.21;81.67;97934.88;5116318;27;20212;-71
2023/11/25 00:11:32;;;;;;;5.83;3.03;;;;;;;2.19;81.52;97934.03;5105095;27;20228;-68
2023/11/25 00:14:00;;;;;;;7.90;5.23;;;;;;;2.23;81.68;97935.69;5112989;27;20203;-69
2023/11/25 00:16:30;;;;;;;9.23;3.80;;;;;;;2.25;82.70;97930.59;5118421;27;20231;-70
2023/11/25 00:18:58;;;;;;;8.03;3.80;;;;;;;2.27;82.09;97927.16;5108570;27;20209;-69
2023/11/25 00:21:26;;;;;;;6.67;3.50;;;;;;;2.29;82.13;97933.06;5117868;27;20199;-69
2023/11/25 00:23:54;;;;;;;5.43;3.23;;;;;;;2.27;81.14;97934.78;5101221;27;20204;-69
2023/11/25 00:26:24;;;;;;;9.57;3.60;;;;;;;2.29;82.01;97942.41;5116651;27;20617;-69
2023/11/25 00:28:51;;;;;;;11.07;4.23;;;;;;;2.27;81.39;97944.94;5113420;27;20199;-71
2023/11/25 00:31:20;;;;;;;4.87;3.47;;;;;;;2.26;81.41;97943.28;5119257;27;20286;-73
2023/11/25 00:33:49;;;;;;;7.37;3.77;;;;;;;2.28;82.16;97956.78;5115824;27;20593;-69
2023/11/25 00:36:17;;;;;;;5.70;3.23;;;;;;;2.28;82.30;97949.16;5110387;27;20292;-70
2023/11/25 00:38:45;;;;;;;5.40;3.70;;;;;;;2.23;81.32;97948.38;5111161;27;20200;-70
2023/11/25 00:41:16;;;;;;;5.37;3.67;;;;;;;2.22;82.60;97951.78;5094834;27;20288;-71
2023/11/25 00:43:44;;;;;;;6.70;3.50;;;;;;;2.25;82.73;97946.69;5121974;27;20244;-72
2023/11/25 00:46:12;;;;;;;6.30;3.83;;;;;;;2.24;80.95;97944.13;5118325;27;20265;-75
2023/11/25 00:48:43;;;;;;;6.93;4.03;;;;;;;2.22;81.63;97951.78;5114160;27;20290;-71
2023/11/25 00:51:14;;;;;;;6.37;3.27;;;;;;;2.22;81.73;97954.34;5110239;27;20268;-72
2023/11/25 00:53:43;;;;;;;5.53;3.30;;;;;;;2.23;81.38;97950.94;5120557;27;20295;-71
2023/11/25 00:56:13;;;;;;;4.47;3.27;;;;;;;2.21;82.85;97947.56;5104517;27;20249;-72
2023/11/25 00:58:44;;;;;;;5.23;3.83;;;;;;;2.19;82.36;97954.38;5113199;27;20212;-72
2023/11/25 01:01:12;;;;;;;6.10;3.80;;;;;;;2.20;82.84;97950.97;5112929;28;20229;-72
2023/11/25 01:03:43;;;;;;;6.63;3.67;;;;;;;2.15;81.09;97955.25;5110875;27;20196;-72
2023/11/25 01:06:12;;;;;;;8.30;3.90;;;;;;;2.11;82.02;97949.38;5116976;27;20205;-73
2023/11/25 01:08:40;;;;;;;3.93;3.30;;;;;;;2.09;81.21;97948.53;5112197;27;20199;-71
2023/11/25 01:11:08;;;;;;;6.70;3.20;;;;;;;2.12;81.38;97955.28;5117950;27;20587;-74
2023/11/25 01:13:36;;;;;;;4.87;3.43;;;;;;;2.14;81.70;97956.13;5118562;27;20197;-75
2023/11/25 01:16:17;;;;;;;8.00;3.80;;;;;;;2.18;82.28;97955.22;5111782;27;20245;-71
2023/11/25 01:18:45;;;;;;;9.33;3.70;;;;;;;2.17;82.48;97953.53;5121986;27;20699;-72
2023/11/25 01:21:15;;;;;;;6.57;3.40;;;;;;;2.19;82.56;97964.53;5114636;27;20203;-74
2023/11/25 01:23:43;;;;;;;5.23;3.63;;;;;;;2.15;81.79;97957.81;5120753;27;20200;-73
2023/11/25 01:26:11;;;;;;;6.67;3.80;;;;;;;2.19;82.27;97959.44;5118868;27;20285;-73
2023/11/25 01:28:42;;;;;;;6.83;3.47;;;;;;;2.13;82.92;97956.97;5112243;27;20196;-75
2023/11/25 01:31:10;;;;;;;4.33;3.17;;;;;;;2.09;82.99;97965.47;5110136;28;20227;-73
2023/11/25 01:33:40;;;;;;;4.60;3.40;;;;;;;2.08;83.61;97958.72;5112250;27;20228;-72
2023/11/25 01:36:10;;;;;;;5.07;3.67;;;;;;;2.00;82.94;97955.44;5111945;28;20215;-72
2023/11/25 01:38:40;;;;;;;8.57;3.40;;;;;;;1.98;82.67;97957.97;5119307;27;20296;-71
2023/11/25 01:41:08;;;;;;;4.80;3.03;;;;;;;1.93;84.24;97958.03;5110642;27;20197;-71
2023/11/25 01:43:37;;;;;;;4.77;3.70;;;;;;;1.96;83.69;97948.72;5125541;27;20211;-71
2023/11/25 01:46:06;;;;;;;4.83;3.40;;;;;;;1.97;84.22;97951.22;5115341;28;20195;-72
2023/11/25 01:48:36;;;;;;;5.30;2.93;;;;;;;2.00;84.38;97955.44;5119046;27;20654;-69
2023/11/25 01:51:06;;;;;;;4.30;3.30;;;;;;;1.94;84.03;97954.63;5105155;28;20294;-70
2023/11/25 01:53:36;;;;;;;5.47;3.10;;;;;;;1.97;84.01;97965.63;5122741;28;20207;-69
2023/11/25 01:56:06;;;;;;;5.87;3.73;;;;;;;1.97;84.16;97963.91;5106891;28;20206;-70
2023/11/25 01:58:35;;;;;;;6.37;3.60;;;;;;;2.01;83.39;97970.66;5113823;28;20204;-69
2023/11/25 02:01:03;;;;;;;5.30;3.30;;;;;;;2.04;83.83;97965.53;5114827;28;20191;-75
2023/11/25 02:03:31;;;;;;;5.20;3.37;;;;;;;2.06;84.62;97962.97;5113075;28;20192;-69
2023/11/25 02:05:59;;;;;;;5.60;3.63;;;;;;;2.11;83.97;97963.78;5125149;28;20300;-70
2023/11/25 02:08:27;;;;;;;4.10;3.50;;;;;;;2.13;84.72;97972.22;5111495;28;20619;-68
2023/11/25 02:10:56;;;;;;;7.07;4.07;;;;;;;2.14;84.56;97968.84;5112571;28;20204;-70
2023/11/25 02:13:26;;;;;;;5.97;4.30;;;;;;;2.08;83.49;97968.88;5099488;28;20207;-68
2023/11/25 02:15:55;;;;;;;7.13;4.10;;;;;;;2.10;83.93;97967.16;5120259;28;20308;-70
2023/11/25 02:18:24;;;;;;;4.57;3.80;;;;;;;2.06;84.18;97968.06;5119317;28;20533;-68
2023/11/25 02:20:53;;;;;;;5.77;3.90;;;;;;;2.08;84.05;97982.44;5104072;28;20207;-71
2023/11/25 02:23:23;;;;;;;6.37;4.03;;;;;;;2.12;83.61;97986.59;5115408;28;20284;-67
2023/11/25 02:25:52;;;;;;;5.83;4.03;;;;;;;2.13;83.00;97990.81;5108969;28;20273;-69
2023/11/25 02:28:21;;;;;;;7.23;3.53;;;;;;;2.13;83.86;97998.44;5120828;28;20286;-66
2023/11/25 02:30:50;;;;;;;5.43;3.93;;;;;;;2.13;83.24;97990.00;5116997;28;20220;-68
2023/11/25 02:33:18;;;;;;;7.27;4.33;;;;;;;2.06;83.03;97991.78;5114717;28;20556;-69
2023/11/25 02:35:47;;;;;;;4.17;3.57;;;;;;;2.05;83.17;97999.41;5116860;28;20288;-68
2023/11/25 02:38:15;;;;;;;7.23;3.67;;;;;;;2.02;83.46;97999.41;5105896;28;20199;-68
2023/11/25 02:40:46;;;;;;;6.57;4.30;;;;;;;2.05;83.74;98004.47;5111884;27;20200;-70
2023/11/25 02:43:14;;;;;;;7.23;4.10;;;;;;;2.07;84.19;98001.06;5123768;28;20240;-70
2023/11/25 02:45:42;;;;;;;7.73;3.83;;;;;;;2.05;83.66;98004.47;5116848;28;20577;-69
2023/11/25 02:48:15;;;;;;;4.10;3.30;;;;;;;2.05;82.36;98004.47;5119827;28;20208;-67
2023/11/25 02:50:44;;;;;;;4.53;3.43;;;;;;;2.03;83.03;98008.75;5114106;28;20216;-66
2023/11/25 02:53:12;;;;;;;4.93;3.10;;;;;;;2.04;83.49;98008.72;5109461;28;20753;-67
2023/11/25 02:55:40;;;;;;;5.00;2.90;;;;;;;2.07;82.75;98007.84;5117915;28;20322;-69
2023/11/25 02:58:10;;;;;;;5.00;3.20;;;;;;;2.09;82.10;98006.13;5101754;28;20214;-72
2023/11/25 03:00:40;;;;;;;4.07;2.60;;;;;;;2.07;82.20;98007.84;5108878;27;20539;-73
2023/11/25 03:03:12;;;;;;;4.93;3.30;;;;;;;2.01;81.98;98008.75;5109316;27;20247;-72
2023/11/25 03:05:45;;;;;;;3.90;2.90;;;;;;;1.97;81.00;98008.81;5118799;27;20658;-72
2023/11/25 03:08:14;;;;;;;6.40;2.87;;;;;;;1.97;81.66;98008.81;5112188;27;20635;-72
2023/11/25 03:10:46;;;;;;;4.53;3.03;;;;;;;1.99;82.32;98010.47;5120652;27;20414;-73
2023/11/25 03:13:16;;;;;;;3.77;2.87;;;;;;;1.97;81.18;98012.19;5117616;27;20278;-71
2023/11/25 03:15:44;;;;;;;3.07;2.30;;;;;;;1.99;82.09;98027.38;5112669;27;20241;-71
2023/11/25 03:18:13;;;;;;;3.87;2.63;;;;;;;1.97;80.32;98024.03;5121475;27;20227;-71
2023/11/25 03:20:42;;;;;;;6.43;2.80;;;;;;;1.90;81.20;98026.63;5114422;27;20216;-73
2023/11/25 03:23:10;;;;;;;3.70;2.60;;;;;;;1.86;80.48;98035.13;5117295;27;20200;-70
2023/11/25 03:25:38;;;;;;;2.83;2.57;;;;;;;1.83;80.75;98035.16;5125552;27;20654;-71
2023/11/25 03:28:10;;;;;;;3.23;2.53;;;;;;;1.82;81.20;98032.66;5119826;27;20822;-71
2023/11/25 03:30:40;;;;;;;5.07;3.20;;;;;;;1.85;81.04;98038.53;5121567;27;20219;-71
2023/11/25 03:33:09;;;;;;;4.63;3.07;;;;;;;1.80;82.02;98045.34;5106951;27;20206;-71
2023/11/25 03:35:37;;;;;;;4.13;2.80;;;;;;;1.80;80.84;98042.78;5125840;27;20571;-71
2023/11/25 03:38:08;;;;;;;4.00;2.97;;;;;;;1.82;81.13;98041.09;5105584;27;20246;-72
2023/11/25 03:40:37;;;;;;;4.67;2.77;;;;;;;1.83;81.44;98045.31;5119473;27;21263;-73
2023/11/25 03:43:06;;;;;;;6.03;3.37;;;;;;;1.79;82.48;98043.66;5122044;27;20578;-71
2023/11/25 03:45:34;;;;;;;4.40;3.03;;;;;;;1.65;83.47;98045.47;5119257;27;20200;-70
2023/11/25 03:48:05;;;;;;;4.57;3.27;;;;;;;1.61;84.93;98051.44;5104011;27;20204;-72
2023/11/25 03:50:33;;;;;;;3.40;3.10;;;;;;;1.61;85.39;98049.72;5116847;27;20290;-71
2023/11/25 03:53:02;;;;;;;7.03;3.73;;;;;;;1.61;85.25;98048.88;5116567;27;20647;-71
2023/11/25 03:55:29;;;;;;;4.50;3.37;;;;;;;1.62;84.32;98045.47;5111871;27;20204;-71
2023/11/25 03:57:57;;;;;;;6.30;3.13;;;;;;;1.64;84.52;98059.03;5108147;27;20318;-71
2023/11/25 04:00:25;;;;;;;3.77;3.00;;;;;;;1.62;84.39;98059.03;5114378;27;20197;-72
2023/11/25 04:02:57;;;;;;;3.63;2.83;;;;;;;1.65;84.43;98061.53;5111273;27;20203;-72
2023/11/25 04:05:27;;;;;;;3.50;2.93;;;;;;;1.69;84.06;98054.72;5110328;27;20193;-70
2023/11/25 04:07:55;;;;;;;3.17;2.87;;;;;;;1.71;83.16;98057.28;5118579;27;20207;-68
2023/11/25 04:10:23;;;;;;;3.90;2.63;;;;;;;1.74;82.84;98059.81;5112519;27;20195;-68
2023/11/25 04:12:52;;;;;;;3.87;2.53;;;;;;;1.73;81.99;98058.09;5112113;27;20604;-68
2023/11/25 04:15:20;;;;;;;3.43;2.60;;;;;;;1.69;81.93;98062.34;5110286;27;20376;-69
2023/11/25 04:17:50;;;;;;;3.47;3.07;;;;;;;1.71;81.63;98059.81;5122335;27;20199;-69
2023/11/25 04:20:24;;;;;;;4.93;2.80;;;;;;;1.67;81.23;98061.53;5112185;27;20227;-69
2023/11/25 04:22:58;;;;;;;3.27;2.90;;;;;;;1.65;82.12;98066.59;5106480;27;20196;-69
2023/11/25 04:25:25;;;;;;;2.70;2.40;;;;;;;1.62;81.91;98063.25;5115978;27;20223;-70
2023/11/25 04:27:55;;;;;;;2.50;2.27;;;;;;;1.61;81.73;98070.03;5115793;27;20280;-68
2023/11/25 04:30:23;;;;;;;4.37;2.50;;;;;;;1.62;82.74;98075.94;5112524;27;20204;-68
2023/11/25 04:32:52;;;;;;;2.80;2.60;;;;;;;1.59;82.13;98076.00;5115808;27;20218;-69
2023/11/25 04:35:21;;;;;;;2.83;2.63;;;;;;;1.63;81.72;98077.66;5120260;27;20662;-68
2023/11/25 04:37:49;;;;;;;2.93;2.57;;;;;;;1.63;82.25;98086.09;5122187;27;20627;-68
2023/11/25 04:40:19;;;;;;;4.03;2.47;;;;;;;1.66;81.86;98086.09;5104977;27;20199;-68
2023/11/25 04:42:48;;;;;;;2.43;2.20;;;;;;;1.72;81.65;98097.03;5113847;27;20269;-67
2023/11/25 04:45:16;;;;;;;2.97;2.30;;;;;;;1.68;81.99;98086.91;5111289;27;20251;-69
2023/11/25 04:47:47;;;;;;;2.77;2.57;;;;;;;1.71;82.24;98090.28;5119810;27;20199;-69
2023/11/25 04:50:16;;;;;;;2.90;2.60;;;;;;;1.74;82.32;98095.34;5101943;27;20215;-67
2023/11/25 04:52:45;;;;;;;2.70;2.40;;;;;;;1.73;82.67;98089.44;5119915;27;20577;-69
2023/11/25 04:55:16;;;;;;;3.60;2.50;;;;;;;1.73;81.81;98097.03;5102398;28;20246;-69
2023/11/25 04:57:45;;;;;;;2.90;2.70;;;;;;;1.72;82.92;98097.88;5116459;27;20208;-68
2023/11/25 05:00:15;;;;;;;2.80;2.60;;;;;;;1.74;83.33;98100.41;5106754;27;20257;-70
2023/11/25 05:02:43;;;;;;;2.73;2.53;;;;;;;1.72;83.39;98102.94;5120282;27;20200;-70
2023/11/25 05:05:12;;;;;;;4.17;2.80;;;;;;;1.66;84.51;98115.72;5117633;27;20204;-69
2023/11/25 05:07:41;;;;;;;2.87;2.57;;;;;;;1.66;83.42;98113.16;5121393;27;20253;-69
2023/11/25 05:10:11;;;;;;;2.83;2.57;;;;;;;1.64;83.63;98115.69;5114511;27;20203;-70
2023/11/25 05:12:41;;;;;;;2.70;2.50;;;;;;;1.62;84.77;98114.00;5114599;27;20229;-69
2023/11/25 05:15:11;;;;;;;2.30;2.10;;;;;;;1.60;84.60;98120.81;5110275;27;20235;-70
2023/11/25 05:17:40;;;;;;;2.60;2.40;;;;;;;1.63;83.95;98133.50;5103546;27;20207;-66
2023/11/25 05:20:15;;;;;;;4.10;2.13;;;;;;;1.66;84.10;98128.41;5110473;27;20722;-72
2023/11/25 05:22:44;;;;;;;2.63;2.30;;;;;;;1.67;83.00;98127.53;5113286;27;20222;-72
2023/11/25 05:25:13;;;;;;;2.67;2.20;;;;;;;1.68;83.93;98135.13;5117699;27;20203;-72
2023/11/25 05:27:41;;;;;;;2.60;2.10;;;;;;;1.65;83.93;98125.00;5112397;27;20626;-71
2023/11/25 05:30:13;;;;;;;2.70;2.50;;;;;;;1.66;84.40;98139.41;5117100;27;20663;-71
2023/11/25 05:32:43;;;;;;;2.40;2.20;;;;;;;1.68;83.79;98131.75;5112423;27;20231;-71
2023/11/25 05:35:12;;;;;;;2.40;2.20;;;;;;;1.71;83.90;98144.44;5109226;27;20207;-70
2023/11/25 05:37:43;;;;;;;3.10;2.40;;;;;;;1.73;84.12;98145.28;5106794;28;20203;-72
2023/11/25 05:40:13;;;;;;;2.80;2.33;;;;;;;1.74;84.18;98148.66;5108197;27;20532;-72
2023/11/25 05:42:47;;;;;;;3.63;2.27;;;;;;;1.76;84.05;98147.78;5111286;27;20752;-71
2023/11/25 05:45:20;;;;;;;2.40;2.20;;;;;;;1.78;84.61;98158.78;5112025;28;20204;-72
2023/11/25 05:47:48;;;;;;;2.80;2.40;;;;;;;1.78;84.00;98168.94;5109260;28;20213;-72
2023/11/25 05:50:19;;;;;;;2.87;2.57;;;;;;;1.80;84.19;98172.28;5124977;28;20209;-73
2023/11/25 05:52:48;;;;;;;2.90;2.60;;;;;;;1.82;84.89;98173.13;5118713;28;20223;-71
2023/11/25 05:55:19;;;;;;;3.57;2.57;;;;;;;1.84;84.68;98186.66;5124149;28;20249;-72
2023/11/25 05:57:50;;;;;;;3.63;2.77;;;;;;;1.81;83.84;98186.69;5118838;28;20226;-72
2023/11/25 06:00:22;;;;;;;3.33;2.70;;;;;;;1.79;84.10;98185.00;5109075;28;20208;-72
2023/11/25 06:02:52;;;;;;;3.20;2.37;;;;;;;1.80;84.31;98192.59;5114891;27;20212;-70
2023/11/25 06:05:21;;;;;;;2.70;2.33;;;;;;;1.75;84.26;98184.19;5111570;28;20686;-72
2023/11/25 06:07:49;;;;;;;3.10;2.80;;;;;;;1.75;84.25;98194.34;5116263;28;20214;-70
2023/11/25 06:10:18;;;;;;;2.53;2.30;;;;;;;1.78;84.98;98198.56;5116443;28;20204;-72
2023/11/25 06:12:46;;;;;;;2.90;2.60;;;;;;;1.78;84.48;98207.00;5115557;28;20689;-71
2023/11/25 06:15:15;;;;;;;3.53;3.23;;;;;;;1.77;85.52;98207.88;5123670;27;20241;-71
2023/11/25 06:17:45;;;;;;;3.63;3.33;;;;;;;1.79;84.53;98216.31;5110803;28;20208;-71
2023/11/25 06:20:13;;;;;;;4.90;4.00;;;;;;;1.78;84.49;98216.34;5112589;28;20209;-73
2023/11/25 06:22:42;;;;;;;5.10;4.13;;;;;;;1.71;84.58;98219.75;5120136;28;20204;-71
2023/11/25 06:25:10;;;;;;;4.00;3.60;;;;;;;1.69;84.14;98222.28;5125804;28;20245;-72
2023/11/25 06:27:40;;;;;;;3.97;3.57;;;;;;;1.66;83.24;98229.94;5124297;28;20211;-70
2023/11/25 06:30:10;;;;;;;4.03;3.33;;;;;;;1.61;84.31;98234.19;5116592;28;20227;-67
2023/11/25 06:32:38;;;;;;;3.57;2.90;;;;;;;1.56;85.41;98239.28;5111373;28;20216;-68
2023/11/25 06:35:09;;;;;;;5.17;3.63;;;;;;;1.57;85.11;98242.66;5123106;27;20206;-68
2023/11/25 06:37:39;;;;;;;3.33;3.03;;;;;;;1.59;85.91;98241.81;5116680;27;20260;-70
2023/11/25 06:40:12;;;;;;;3.87;3.10;;;;;;;1.61;85.13;98251.94;5109284;27;20234;-67
2023/11/25 06:42:41;;;;;;;3.30;3.00;;;;;;;1.61;85.96;98247.72;5115831;27;20659;-69
2023/11/25 06:45:10;;;;;;;4.23;3.33;;;;;;;1.62;85.24;98251.97;5126996;27;20203;-68
2023/11/25 06:47:38;;;;;;;3.97;3.10;;;;;;;1.64;85.31;98265.47;5113372;27;20227;-69
2023/11/25 06:50:09;;;;;;;3.70;3.40;;;;;;;1.60;84.67;98263.81;5121433;27;20654;-67
2023/11/25 06:52:38;;;;;;;4.90;3.20;;;;;;;1.57;84.68;98265.50;5107319;27;20633;-68
2023/11/25 06:55:09;;;;;;;6.13;3.50;;;;;;;1.54;84.42;98268.88;5109281;27;20214;-68
2023/11/25 06:57:38;;;;;;;4.40;3.40;;;;;;;1.56;85.93;98277.34;5128950;27;20215;-68
2023/11/25 07:00:08;;;;;;;5.03;2.90;;;;;;;1.55;85.41;98282.44;5109952;27;20253;-68
2023/11/25 07:02:37;;;;;;;4.03;3.20;;;;;;;1.47;85.04;98285.00;5109732;27;20964;-71
2023/11/25 07:05:07;;;;;;;3.77;2.83;;;;;;;1.44;86.11;98290.09;5125951;27;20223;-69
2023/11/25 07:07:38;;;;;;;3.70;3.03;;;;;;;1.44;85.12;98287.56;5115179;27;20249;-68
2023/11/25 07:10:09;;;;;;;3.00;2.43;;;;;;;1.42;85.60;98290.09;5124909;27;20227;-69
2023/11/25 07:12:38;;;;;;;2.90;2.60;;;;;;;1.38;85.49;98288.41;5106216;28;20220;-66
2023/11/25 07:15:09;;;;;;;2.33;2.10;;;;;;;1.39;84.96;98287.56;5120107;27;20235;-68
2023/11/25 07:17:37;;;;;;;3.23;2.33;;;;;;;1.38;84.88;98290.94;5106355;27;20192;-65
2023/11/25 07:20:11;;;;;;;2.63;2.43;;;;;;;1.43;84.26;98284.16;5118435;27;20692;-67
2023/11/25 07:22:42;;;;;;;3.33;2.63;;;;;;;1.47;84.49;98294.31;5117960;27;20553;-68
2023/11/25 07:25:11;;;;;;;4.97;2.80;;;;;;;1.48;84.21;98299.38;5110978;27;20199;-68
2023/11/25 07:27:41;;;;;;;3.10;2.57;;;;;;;1.50;83.76;98294.28;5107850;27;20212;-68
2023/11/25 07:30:09;;;;;;;2.90;2.50;;;;;;;1.50;83.12;98300.22;5120866;27;20656;-68
2023/11/25 07:32:37;;;;;;;2.43;1.93;;;;;;;1.49;83.11;98308.69;5108369;27;20211;-68
2023/11/25 07:35:07;;;;;;;2.33;1.93;;;;;;;1.45;83.68;98312.94;5123676;27;20226;-68
2023/11/25 07:37:36;;;;;;;2.50;2.30;;;;;;;1.50;83.42;98306.97;5117117;27;20240;-70
2023/11/25 07:40:12;;;;;;;2.43;2.23;;;;;;;1.53;82.71;98317.13;5103834;27;20204;-69
2023/11/25 07:42:41;;;;;;;3.87;1.87;;;;;;;1.56;82.61;98322.22;5111597;27;20725;-71
2023/11/25 07:45:11;;;;;;;2.30;2.10;;;;;;;1.58;83.61;98323.03;5117355;27;20205;-71
2023/11/25 07:47:40;;;;;;;2.27;1.70;;;;;;;1.62;81.90;98323.03;5127632;27;20304;-69
2023/11/25 07:50:09;;;;;;;2.10;1.90;;;;;;;1.62;82.44;98330.66;5100609;27;20220;-69
2023/11/25 07:52:37;;;;;;;2.30;1.90;;;;;;;1.66;82.26;98331.47;5121805;27;20207;-68
2023/11/25 07:55:08;;;;;;;2.40;1.80;;;;;;;1.68;81.94;98338.22;5114584;28;20662;-68
2023/11/25 07:57:37;;;;;;;1.83;1.60;;;;;;;1.72;82.33;98336.50;5116102;27;20223;-70
2023/11/25 08:00:07;;;;;;;2.17;1.93;;;;;;;1.73;81.93;98344.97;5110618;28;20192;-69
2023/11/25 08:02:35;;;;;;;1.80;1.70;;;;;;;1.74;81.85;98355.16;5124164;27;20332;-68
2023/11/25 08:05:04;;;;;;;2.17;1.83;;;;;;;1.74;81.27;98354.31;5107464;27;20647;-70
2023/11/25 08:07:32;;;;;;;2.33;1.83;;;;;;;1.71;80.31;98351.78;5113168;28;20290;-67
2023/11/25 08:10:03;;;;;;;1.93;1.60;;;;;;;1.71;80.53;98355.16;5109582;28;20203;-70
2023/11/25 08:12:32;;;;;;;1.53;1.43;;;;;;;1.71;80.07;98355.16;5097909;28;20254;-63
2023/11/25 08:15:00;;;;;;;1.77;1.60;;;;;;;1.71;80.25;98352.59;5112600;28;20690;-67
2023/11/25 08:17:29;;;;;;;2.43;1.70;;;;;;;1.71;80.38;98355.16;5115069;27;20678;-70
2023/11/25 08:19:57;;;;;;;1.70;1.50;;;;;;;1.70;79.98;98353.47;5100438;27;20204;-63
2023/11/25 08:22:25;;;;;;;2.20;1.50;;;;;;;1.66;79.58;98351.78;5112707;28;20647;-64
2023/11/25 08:24:57;;;;;;;3.07;1.70;;;;;;;1.68;80.73;98361.06;5108249;27;20203;-64
2023/11/25 08:27:25;;;;;;;1.50;1.40;;;;;;;1.69;79.93;98362.78;5114203;27;20621;-67
2023/11/25 08:29:54;;;;;;;1.73;1.10;;;;;;;1.69;79.61;98355.16;5107916;27;20215;-65
2023/11/25 08:32:22;;;;;;;2.67;2.00;;;;;;;1.69;78.66;98367.00;5099859;27;20450;-64
2023/11/25 08:34:50;;;;;;;2.00;1.20;;;;;;;1.70;78.55;98363.63;5108138;27;20212;-64
2023/11/25 08:37:24;;;;;;;1.43;1.20;;;;;;;1.65;79.09;98350.06;5112488;28;20196;-65
2023/11/25 08:39:54;;;;;;;1.17;1.07;;;;;;;1.65;78.50;98370.38;5107426;27;20239;-71
2023/11/25 08:42:24;;;;;;;3.50;1.50;;;;;;;1.67;79.23;98366.16;5109126;28;20220;-71
2023/11/25 08:44:54;;;;;;;2.53;1.20;;;;;;;1.71;78.84;98369.53;5099717;28;20859;-66
2023/11/25 08:47:23;;;;;;;1.30;1.17;;;;;;;1.72;79.81;98373.75;5112510;28;20559;-66
2023/11/25 08:49:52;;;;;;;3.27;1.60;;;;;;;1.73;78.60;98368.69;5095507;28;20218;-65
2023/11/25 08:52:22;;;;;;;1.60;1.50;;;;;;;1.74;79.66;98370.38;5105566;27;20643;-66
2023/11/25 08:54:52;;;;;;;2.30;1.30;;;;;;;1.78;78.68;98376.28;5116027;27;20323;-65
2023/11/25 08:57:21;;;;;;;1.60;1.43;;;;;;;1.78;78.30;98372.06;5117034;27;20647;-64
2023/11/25 08:59:49;;;;;;;3.07;1.43;;;;;;;1.83;78.21;98372.88;5113479;28;20214;-66
2023/11/25 09:02:22;;;;;;;2.70;1.43;;;;;;;1.90;79.18;98376.25;5106418;27;20230;-65
2023/11/25 09:04:50;;;;;;;3.90;1.83;;;;;;;1.90;77.80;98374.53;5104762;27;20244;-66
2023/11/25 09:07:33;;;;;;;3.00;1.70;;;;;;;1.98;77.81;98373.66;5118140;27;20212;-62
2023/11/25 09:10:05;;;;;;;2.97;1.90;;;;;;;1.99;77.85;98388.91;5111994;28;20574;-64
2023/11/25 09:12:33;;;;;;;1.93;1.60;;;;;;;1.99;76.92;98390.59;5107701;27;20662;-64
2023/11/25 09:15:03;;;;;;;2.93;1.80;;;;;;;1.95;76.26;98405.00;5110838;27;20240;-66
2023/11/25 09:17:35;;;;;;;3.43;1.43;;;;;;;1.89;77.51;98400.78;5119136;27;20207;-64
2023/11/25 09:20:04;;;;;;;2.57;1.70;;;;;;;1.85;78.57;98404.19;5126000;27;20291;-64
2023/11/25 09:22:32;;;;;;;3.50;1.67;;;;;;;1.84;79.10;98407.59;5123460;27;20540;-62
2023/11/25 09:25:00;;;;;;;2.80;1.83;;;;;;;1.81;79.10;98405.06;5119265;27;20210;-63
2023/11/25 09:27:28;;;;;;;3.60;2.00;;;;;;;1.81;79.11;98416.91;5116667;27;20204;-63
2023/11/25 09:29:56;;;;;;;2.60;1.87;;;;;;;1.81;80.39;98417.75;5115708;27;20719;-65
2023/11/25 09:32:27;;;;;;;2.07;1.80;;;;;;;1.79;81.94;98413.50;5115833;27;20196;-65
2023/11/25 09:34:56;;;;;;;2.53;2.00;;;;;;;1.76;81.23;98418.59;5116365;27;20307;-64
2023/11/25 09:37:25;;;;;;;3.30;1.53;;;;;;;1.67;82.50;98425.41;5111436;27;20204;-64
2023/11/25 09:39:53;;;;;;;3.03;1.70;;;;;;;1.50;83.04;98426.28;5122784;27;20199;-65
2023/11/25 09:42:21;;;;;;;1.90;1.47;;;;;;;1.42;83.59;98427.13;5119463;27;20260;-68
2023/11/25 09:44:50;;;;;;;2.17;1.67;;;;;;;1.37;84.76;98420.38;5100292;27;20281;-65
2023/11/25 09:47:18;;;;;;;2.40;1.57;;;;;;;1.30;84.53;98428.84;5106393;28;20204;-61
2023/11/25 09:49:47;;;;;;;2.90;1.83;;;;;;;1.28;86.01;98430.50;5112549;28;20246;-63
2023/11/25 09:52:20;;;;;;;3.37;1.80;;;;;;;1.24;86.09;98427.13;5116895;28;20622;-70
2023/11/25 09:54:54;;;;;;;2.53;1.60;;;;;;;1.30;86.16;98431.38;5117768;28;20616;-71
2023/11/25 09:57:23;;;;;;;2.73;1.70;;;;;;;1.29;86.95;98429.66;5117508;28;20239;-69
2023/11/25 09:59:51;;;;;;;2.83;1.80;;;;;;;1.27;86.57;98428.84;5109931;28;20661;-70
2023/11/25 10:02:20;;;;;;;3.00;2.27;;;;;;;1.25;86.46;98428.81;5108171;28;20207;-65
2023/11/25 10:04:49;;;;;;;3.40;2.10;;;;;;;1.25;86.54;98438.13;5112020;28;20206;-70
2023/11/25 10:07:20;;;;;;;3.23;2.33;;;;;;;1.26;87.00;98428.00;5111608;28;20657;-68
2023/11/25 10:09:49;;;;;;;5.07;2.50;;;;;;;1.24;86.93;98429.66;5114426;27;20243;-69
2023/11/25 10:12:18;;;;;;;5.27;2.70;;;;;;;1.32;86.14;98435.56;5124677;27;20208;-69
2023/11/25 10:14:47;;;;;;;3.07;2.30;;;;;;;1.33;86.31;98434.75;5110071;27;20323;-69
2023/11/25 10:17:18;;;;;;;4.20;2.50;;;;;;;1.37;85.84;98435.59;5118617;27;20200;-71
2023/11/25 10:19:47;;;;;;;2.83;2.10;;;;;;;1.39;85.33;98441.50;5120054;27;20555;-69
2023/11/25 10:22:17;;;;;;;5.73;2.50;;;;;;;1.34;85.09;98440.66;5116756;27;20192;-71
2023/11/25 10:24:49;;;;;;;4.33;2.60;;;;;;;1.38;85.08;98444.91;5122551;27;20684;-71
2023/11/25 10:27:17;;;;;;;3.97;2.50;;;;;;;1.36;85.90;98444.91;5114489;27;20200;-71
2023/11/25 10:29:47;;;;;;;3.13;2.67;;;;;;;1.36;86.07;98449.13;5114875;27;20253;-70
2023/11/25 10:32:15;;;;;;;4.27;3.37;;;;;;;1.25;85.35;98438.13;5117022;27;20227;-69
2023/11/25 10:34:43;;;;;;;3.27;2.73;;;;;;;1.26;85.80;98447.44;5115571;27;20254;-69
2023/11/25 10:37:11;;;;;;;3.83;3.10;;;;;;;1.25;86.39;98451.66;5120415;27;20572;-71
2023/11/25 10:39:38;;;;;;;5.10;3.60;;;;;;;1.27;86.01;98459.28;5119342;27;20218;-69
2023/11/25 10:42:10;;;;;;;4.97;3.87;;;;;;;1.25;85.66;98453.34;5104419;27;20224;-69
2023/11/25 10:44:39;;;;;;;5.87;3.90;;;;;;;1.25;85.57;98456.72;5119666;27;20245;-67
2023/11/25 10:47:07;;;;;;;3.90;3.50;;;;;;;1.26;85.42;98452.53;5106437;28;20738;-71
2023/11/25 10:49:37;;;;;;;5.10;3.93;;;;;;;1.29;85.49;98465.19;5116297;27;20663;-71
2023/11/25 10:52:07;;;;;;;3.83;3.43;;;;;;;1.28;84.60;98469.41;5104841;27;20193;-65
2023/11/25 10:54:36;;;;;;;7.53;3.80;;;;;;;1.30;84.85;98469.44;5104498;27;20216;-64
2023/11/25 10:57:07;;;;;;;6.57;3.90;;;;;;;1.32;84.62;98476.19;5111971;27;20712;-65
2023/11/25 10:59:39;;;;;;;4.40;3.23;;;;;;;1.33;85.59;98471.97;5121025;27;20200;-62
2023/11/25 11:02:23;;;;;;;4.60;3.60;;;;;;;1.34;84.81;98468.59;5104939;28;20196;-62
2023/11/25 11:04:57;;;;;;;3.57;2.90;;;;;;;1.21;84.15;98470.25;5110959;28;20731;-65
2023/11/25 11:07:30;;;;;;;3.87;2.53;;;;;;;1.22;84.27;98477.03;5106940;27;20536;-68
2023/11/25 11:10:03;;;;;;;3.50;2.73;;;;;;;1.17;83.89;98478.72;5110305;27;20685;-70
2023/11/25 11:12:39;;;;;;;5.10;3.10;;;;;;;1.06;83.84;98466.00;5114420;27;20572;-68
2023/11/25 11:15:15;;;;;;;3.67;3.20;;;;;;;1.14;84.42;98482.13;5115263;27;21139;-65
2023/11/25 11:17:55;;;;;;;6.03;2.50;;;;;;;1.13;84.65;98488.00;5103677;27;20751;-64
2023/11/25 11:20:28;;;;;;;3.60;3.00;;;;;;;1.13;84.87;98488.00;5101824;27;20282;-66
2023/11/25 11:22:57;;;;;;;3.70;3.10;;;;;;;1.15;84.26;98485.50;5117639;27;20200;-63
2023/11/25 11:25:34;;;;;;;3.87;2.80;;;;;;;1.16;84.35;98487.19;5121189;27;20670;-65
2023/11/25 11:28:13;;;;;;;4.63;2.80;;;;;;;1.13;83.85;98482.09;5120247;27;20731;-65
2023/11/25 11:30:54;;;;;;;5.87;2.90;;;;;;;1.12;83.75;98488.03;5114260;27;20615;-66
2023/11/25 11:33:23;;;;;;;4.27;3.10;;;;;;;1.10;83.92;98493.06;5115873;27;20324;-65
2023/11/25 11:35:51;;;;;;;4.97;3.83;;;;;;;1.11;84.30;98488.88;5104725;27;20223;-65
2023/11/25 11:38:28;;;;;;;4.20;3.17;;;;;;;1.13;84.04;98498.16;5117161;27;20200;-67
2023/11/25 11:40:59;;;;;;;4.50;3.37;;;;;;;1.17;84.41;98499.84;5098721;28;20208;-66
2023/11/25 11:43:28;;;;;;;6.13;2.73;;;;;;;1.12;83.19;98509.16;5107950;28;20199;-64
2023/11/25 11:45:58;;;;;;;3.57;2.87;;;;;;;1.08;83.33;98499.00;5100495;27;20208;-65
2023/11/25 11:48:27;;;;;;;4.77;3.30;;;;;;;1.18;83.35;98503.25;5112786;27;20202;-69
2023/11/25 11:50:55;;;;;;;6.00;3.30;;;;;;;1.18;83.13;98515.94;5109511;27;20215;-71
2023/11/25 11:53:25;;;;;;;3.30;3.00;;;;;;;1.16;82.79;98512.53;5121377;27;20210;-69